Map

Track Data

SID SEASON NUMBER BASIN SUBBASIN NAME ISO_TIME NATURE LAT LON WMO_WIND WMO_PRES WMO_AGENCY TRACK_TYPE DIST2LAND LANDFALL IFLAG USA_AGENCY USA_ATCF_ID USA_LAT USA_LON USA_RECORD USA_STATUS USA_WIND USA_PRES USA_SSHS USA_R34_NE USA_R34_SE USA_R34_SW USA_R34_NW USA_R50_NE USA_R50_SE USA_R50_SW USA_R50_NW USA_R64_NE USA_R64_SE USA_R64_SW USA_R64_NW USA_POCI USA_ROCI USA_RMW USA_EYE TOKYO_LAT TOKYO_LON TOKYO_GRADE TOKYO_WIND TOKYO_PRES TOKYO_R50_DIR TOKYO_R50_LONG TOKYO_R50_SHORT TOKYO_R30_DIR TOKYO_R30_LONG TOKYO_R30_SHORT TOKYO_LAND CMA_LAT CMA_LON CMA_CAT CMA_WIND CMA_PRES HKO_LAT HKO_LON HKO_CAT HKO_WIND HKO_PRES NEWDELHI_LAT NEWDELHI_LON NEWDELHI_GRADE NEWDELHI_WIND NEWDELHI_PRES NEWDELHI_CI NEWDELHI_DP NEWDELHI_POCI REUNION_LAT REUNION_LON REUNION_TYPE REUNION_WIND REUNION_PRES REUNION_TNUM REUNION_CI REUNION_RMW REUNION_R34_NE REUNION_R34_SE REUNION_R34_SW REUNION_R34_NW REUNION_R50_NE REUNION_R50_SE REUNION_R50_SW REUNION_R50_NW REUNION_R64_NE REUNION_R64_SE REUNION_R64_SW REUNION_R64_NW BOM_LAT BOM_LON BOM_TYPE BOM_WIND BOM_PRES BOM_TNUM BOM_CI BOM_RMW BOM_R34_NE BOM_R34_SE BOM_R34_SW BOM_R34_NW BOM_R50_NE BOM_R50_SE BOM_R50_SW BOM_R50_NW BOM_R64_NE BOM_R64_SE BOM_R64_SW BOM_R64_NW BOM_ROCI BOM_POCI BOM_EYE BOM_POS_METHOD BOM_PRES_METHOD NADI_LAT NADI_LON NADI_CAT NADI_WIND NADI_PRES WELLINGTON_LAT WELLINGTON_LON WELLINGTON_WIND WELLINGTON_PRES DS824_LAT DS824_LON DS824_STAGE DS824_WIND DS824_PRES TD9636_LAT TD9636_LON TD9636_STAGE TD9636_WIND TD9636_PRES TD9635_LAT TD9635_LON TD9635_WIND TD9635_PRES TD9635_ROCI NEUMANN_LAT NEUMANN_LON NEUMANN_CLASS NEUMANN_WIND NEUMANN_PRES MLC_LAT MLC_LON MLC_CLASS MLC_WIND MLC_PRES USA_GUST BOM_GUST BOM_GUST_PER REUNION_GUST REUNION_GUST_PER USA_SEAHGT USA_SEARAD_NE USA_SEARAD_SE USA_SEARAD_SW USA_SEARAD_NW STORM_SPEED STORM_DIR
1974234N14251 1974 84 EP MM JOYCE 1974-08-22 00:00:00 TS 14.0000 -109.000 25 hurdat_epa main 734 731 O________OO___ hurdat_epa EP101974 14.0000 -109.000 TD 25 -1 14.0000 -109.000 TC 25 14.0000 -109.000 1 30 4 316
1974234N14251 1974 84 EP MM JOYCE 1974-08-22 03:00:00 TS 14.1450 -109.145 main 731 728 P________PP___ EP101974 14.1425 -109.140 TD 25 -1 14.1425 -109.140 TC 25 14.1548 -109.164 1 30 4 316
1974234N14251 1974 84 EP MM JOYCE 1974-08-22 06:00:00 TS 14.3035 -109.307 25 hurdat_epa main 728 725 O________OP___ hurdat_epa EP101974 14.3000 -109.300 TD 25 -1 14.3000 -109.300 TC 25 14.3176 -109.332 1 30 5 315
1974234N14251 1974 84 EP MM JOYCE 1974-08-22 09:00:00 TS 14.4873 -109.496 main 725 724 P________PP___ EP101974 14.4850 -109.493 TD 25 -1 14.4850 -109.493 TC 25 14.4966 -109.510 1 30 6 316
1974234N14251 1974 84 EP MM JOYCE 1974-08-22 12:00:00 TS 14.7000 -109.700 25 hurdat_epa main 724 716 O________OO___ hurdat_epa EP101974 14.7000 -109.700 TD 25 -1 14.7000 -109.700 TC 25 14.7000 -109.700 1 30 6 320
1974234N14251 1974 84 EP MM JOYCE 1974-08-22 15:00:00 TS 14.9405 -109.895 main 724 716 P________PP___ EP101974 14.9425 -109.893 TD 30 -1 14.9425 -109.893 TC 30 14.9325 -109.907 1 31 6 322
1974234N14251 1974 84 EP MM JOYCE 1974-08-22 18:00:00 TS 15.1970 -110.106 35 hurdat_epa main 716 708 O________OP___ hurdat_epa EP101974 15.2000 -110.100 TS 35 0 15.2000 -110.100 TC 35 15.1850 -110.128 1 32 7 319
1974234N14251 1974 84 EP MM JOYCE 1974-08-22 21:00:00 TS 15.4490 -110.346 main 715 715 P________PP___ EP101974 15.4500 -110.343 TS 35 0 15.4500 -110.343 TC 35 15.4450 -110.360 1 33 7 317
1974234N14251 1974 84 EP MM JOYCE 1974-08-23 00:00:00 TS 15.7000 -110.600 35 hurdat_epa main 717 712 O________OO___ hurdat_epa EP101974 15.7000 -110.600 TS 35 0 15.7000 -110.600 TC 35 15.7000 -110.600 2 35 7 317
1974234N14251 1974 84 EP MM JOYCE 1974-08-23 03:00:00 TS 15.9540 -110.843 main 714 714 P________PP___ EP101974 15.9575 -110.850 TS 35 0 15.9575 -110.850 TC 35 15.9400 -110.815 2 35 7 316
1974234N14251 1974 84 EP MM JOYCE 1974-08-23 06:00:00 TS 16.1944 -111.088 35 hurdat_epa main 727 727 O________OP___ hurdat_epa EP101974 16.2000 -111.100 TS 35 0 16.2000 -111.100 TC 35 16.1720 -111.040 2 35 6 314
1974234N14251 1974 84 EP MM JOYCE 1974-08-23 09:00:00 TS 16.4045 -111.321 main 733 721 P________PP___ EP101974 16.4074 -111.328 TS 35 0 16.4074 -111.328 TC 35 16.3930 -111.296 2 35 6 310
1974234N14251 1974 84 EP MM JOYCE 1974-08-23 12:00:00 TS 16.6000 -111.600 35 hurdat_epa main 724 710 O________OO___ hurdat_epa EP101974 16.6000 -111.600 TS 35 0 16.6000 -111.600 TC 35 16.6000 -111.600 2 35 7 303
1974234N14251 1974 84 EP MM JOYCE 1974-08-23 15:00:00 TS 16.8063 -111.969 main 713 702 P________PP___ EP101974 16.8075 -111.970 TS 47 0 16.8075 -111.970 TC 47 16.8016 -111.967 2 43 9 298
1974234N14251 1974 84 EP MM JOYCE 1974-08-23 18:00:00 TS 16.9975 -112.396 60 hurdat_epa main 705 699 O________OP___ hurdat_epa EP101974 17.0000 -112.400 TS 60 0 17.0000 -112.400 TC 60 16.9875 -112.382 2 52 9 293
1974234N14251 1974 84 EP MM JOYCE 1974-08-23 21:00:00 TS 17.1568 -112.829 main 701 701 P________PP___ EP101974 17.1573 -112.828 TS 65 1 17.1573 -112.828 TC 65 17.1546 -112.832 2 61 9 289
1974234N14251 1974 84 EP MM JOYCE 1974-08-24 00:00:00 TS 17.3000 -113.300 70 hurdat_epa main 714 714 O________OO___ hurdat_epa EP101974 17.3000 -113.300 HU 70 1 17.3000 -113.300 TC 70 17.3000 -113.300 4 70 10 287
1974234N14251 1974 84 EP MM JOYCE 1974-08-24 03:00:00 TS 17.4589 -113.847 main 722 722 P________PP___ EP101974 17.4651 -113.857 HU 70 1 17.4651 -113.857 TC 70 17.4342 -113.805 4 70 11 286
1974234N14251 1974 84 EP MM JOYCE 1974-08-24 06:00:00 TS 17.5891 -114.383 70 hurdat_epa main 749 749 O________OP___ hurdat_epa EP101974 17.6000 -114.400 HU 70 1 17.6000 -114.400 TC 70 17.5457 -114.317 4 70 10 282
1974234N14251 1974 84 EP MM JOYCE 1974-08-24 09:00:00 TS 17.6588 -114.841 main 767 767 P________PP___ EP101974 17.6649 -114.853 HU 70 1 17.6649 -114.853 TC 70 17.6343 -114.796 4 70 8 278
1974234N14251 1974 84 EP MM JOYCE 1974-08-24 12:00:00 TS 17.7000 -115.200 70 hurdat_epa main 794 794 O________OO___ hurdat_epa EP101974 17.7000 -115.200 HU 70 1 17.7000 -115.200 TC 70 17.7000 -115.200 4 70 6 279
1974234N14251 1974 84 EP MM JOYCE 1974-08-24 15:00:00 TS 17.7542 -115.440 main 801 801 P________PP___ EP101974 17.7574 -115.430 HU 72 1 17.7574 -115.430 TC 72 17.7418 -115.479 4 70 4 283
1974234N14251 1974 84 EP MM JOYCE 1974-08-24 18:00:00 TS 17.7928 -115.617 75 hurdat_epa main 815 815 O________OP___ hurdat_epa EP101974 17.8000 -115.600 HU 75 1 17.8000 -115.600 TC 75 17.7642 -115.683 4 70 4 277
1974234N14251 1974 84 EP MM JOYCE 1974-08-24 21:00:00 TS 17.7959 -115.809 main 830 830 P________PP___ EP101974 17.8000 -115.800 HU 72 1 17.8000 -115.800 TC 72 17.7795 -115.845 4 70 4 271
1974234N14251 1974 84 EP MM JOYCE 1974-08-25 00:00:00 TS 17.8000 -116.000 70 hurdat_epa main 846 846 O________OO___ hurdat_epa EP101974 17.8000 -116.000 HU 70 1 17.8000 -116.000 TC 70 17.8000 -116.000 4 70 4 277
1974234N14251 1974 84 EP MM JOYCE 1974-08-25 03:00:00 TS 17.8400 -116.189 main 861 854 P________PP___ EP101974 17.8425 -116.200 HU 67 1 17.8425 -116.200 TC 67 17.8300 -116.143 4 66 4 285
1974234N14251 1974 84 EP MM JOYCE 1974-08-25 06:00:00 TS 17.8938 -116.379 65 hurdat_epa main 870 870 O________OP___ hurdat_epa EP101974 17.9000 -116.400 HU 65 1 17.9000 -116.400 TC 65 17.8689 -116.296 4 62 4 285
1974234N14251 1974 84 EP MM JOYCE 1974-08-25 09:00:00 TS 17.9325 -116.550 main 886 878 P________PP___ EP101974 17.9348 -116.563 HU 62 0 17.9348 -116.563 TC 62 17.9234 -116.500 4 58 4 285
1974234N14251 1974 84 EP MM JOYCE 1974-08-25 12:00:00 TS 18.0000 -116.800 60 hurdat_epa main 892 892 O________OO___ hurdat_epa EP101974 18.0000 -116.800 TS 60 0 18.0000 -116.800 TC 60 18.0000 -116.800 2 55 6 288
1974234N14251 1974 84 EP MM JOYCE 1974-08-25 15:00:00 TS 18.1346 -117.193 main 907 897 P________PP___ EP101974 18.1424 -117.182 TS 60 0 18.1424 -117.182 TC 60 18.1038 -117.237 2 56 9 288
1974234N14251 1974 84 EP MM JOYCE 1974-08-25 18:00:00 TS 18.2856 -117.714 60 hurdat_epa main 920 920 O________OP___ hurdat_epa EP101974 18.3000 -117.700 TS 60 0 18.3000 -117.700 TC 60 18.2279 -117.772 2 57 11 283
1974234N14251 1974 84 EP MM JOYCE 1974-08-25 21:00:00 TS 18.3927 -118.336 main 952 952 P________PP___ EP101974 18.4001 -118.328 TS 60 0 18.4001 -118.328 TC 60 18.3629 -118.372 2 58 12 280
1974234N14251 1974 84 EP MM JOYCE 1974-08-26 00:00:00 TS 18.5000 -119.000 60 hurdat_epa main 994 994 O________OO___ hurdat_epa EP101974 18.5000 -119.000 TS 60 0 18.5000 -119.000 TC 60 18.5000 -119.000 2 60 12 282
1974234N14251 1974 84 EP MM JOYCE 1974-08-26 03:00:00 TS 18.6464 -119.604 main 1031 1023 P________PP___ EP101974 18.6497 -119.600 TS 60 0 18.6497 -119.600 TC 60 18.6332 -119.620 2 60 12 284
1974234N14251 1974 84 EP MM JOYCE 1974-08-26 06:00:00 TS 18.7930 -120.211 60 hurdat_epa main 1063 1063 O________OP___ hurdat_epa EP101974 18.8000 -120.200 TS 60 0 18.8000 -120.200 TC 60 18.7652 -120.257 2 60 12 282
1974234N14251 1974 84 EP MM JOYCE 1974-08-26 09:00:00 TS 18.9039 -120.864 main 1113 1113 P________PP___ EP101974 18.9075 -120.858 TS 60 0 18.9075 -120.858 TC 60 18.8895 -120.891 2 60 12 280
1974234N14251 1974 84 EP MM JOYCE 1974-08-26 12:00:00 TS 19.0000 -121.500 60 hurdat_epa main 1157 1157 O________OO___ hurdat_epa EP101974 19.0000 -121.500 TS 60 0 19.0000 -121.500 TC 60 19.0000 -121.500 2 60 12 280
1974234N14251 1974 84 EP MM JOYCE 1974-08-26 15:00:00 TS 19.1051 -122.068 main 1198 1198 P________PP___ EP101974 19.1073 -122.073 TS 65 1 19.1073 -122.073 TC 65 19.0965 -122.050 2 62 11 281
1974234N14251 1974 84 EP MM JOYCE 1974-08-26 18:00:00 TS 19.1957 -122.595 70 hurdat_epa main 1224 1224 O________OP___ hurdat_epa EP101974 19.2000 -122.600 HU 70 1 19.2000 -122.600 TC 70 19.1787 -122.573 2 65 9 279
1974234N14251 1974 84 EP MM JOYCE 1974-08-26 21:00:00 TS 19.2545 -123.043 main 1242 1242 P________PP___ EP101974 19.2565 -123.033 HU 70 1 19.2565 -123.033 TC 70 19.2466 -123.084 2 67 10 276
1974234N14251 1974 84 EP MM JOYCE 1974-08-27 00:00:00 TS 19.3000 -123.600 70 hurdat_epa main 1283 1283 O________OO___ hurdat_epa EP101974 19.3000 -123.600 HU 70 1 19.3000 -123.600 TC 70 19.3000 -123.600 4 70 13 274
1974234N14251 1974 84 EP MM JOYCE 1974-08-27 03:00:00 TS 19.3472 -124.393 main 1340 1339 P________PP___ EP101974 19.3492 -124.458 HU 62 0 19.3492 -124.458 TC 62 19.3392 -124.132 4 65 17 273
1974234N14251 1974 84 EP MM JOYCE 1974-08-27 06:00:00 TS 19.3933 -125.416 55 hurdat_epa main 1406 1406 O________OP___ hurdat_epa EP101974 19.4000 -125.600 TS 55 0 19.4000 -125.600 TC 55 19.3667 -124.680 4 60 21 273
1974234N14251 1974 84 EP MM JOYCE 1974-08-27 09:00:00 TS 19.4395 -126.635 main 1500 1500 P________PP___ EP101974 19.4529 -126.985 TS 52 0 19.4529 -126.985 TC 52 19.3859 -125.237 4 55 24 272
1974234N14251 1974 84 EP MM JOYCE 1974-08-27 12:00:00 TS 19.4800 -127.960 50 hurdat_epa main 1608 O________OO___ hurdat_epa EP101974 19.5000 -128.500 TS 50 0 19.5000 -128.500 TC 50 19.4000 -125.800 2 50 25 272

About IBTrACS Database

This database is a web-friendly format of International Best Track Archive for Climate Stewardship (IBTrACS), a global best track data archive curated by NOAA dating back to 1842.

Updated: 2021-11-26